KPSM

Portsmouth International at Pease Airport

Portsmouth, New Hampshire, USA
METAR KPSM 190756Z 04009KT 7SM OVC006 17/16 A2983 RMK AO2A SLP103 T01650160
Observed Flight Rules
Sep-19 @ 07:56 UTC (an hour ago) Instrument Flight Rules
Wind Visibility Clouds
40° at 9 knots 7 miles
  • Overcast at 600' AGL
Temperatures Readings
Current 17°C / 63°F
Dewpoint 16°C / 61°F
Humidity 94%
Altimeter 29.83" Hg
Pressure 1010.3 hPa
Elevation 31
METAR KPSM 190756Z 04009KT 7SM OVC006 17/16 A2983 RMK AO2A SLP103 T01650160
Observed Flight Rules
Sep-19 @ 07:56 UTC
(an hour ago)
IFR
Wind Visibility
40° at 9 knots 7 miles
Clouds
  • Overcast at 600' AGL
Temperature Dewpoint
17°C / 63°F 16°C / 61°F
Humidity Altimeter Pressure
94% 29.83" Hg 1010.3 hPa